createdAt,value
2023-04-28T00:01:24.166Z,3.05
2023-04-28T00:04:26.892Z,3.03
2023-04-28T00:07:29.494Z,3.09
2023-04-28T00:10:31.764Z,3.05
2023-04-28T00:13:33.954Z,2.92
2023-04-28T00:16:36.442Z,2.97
2023-04-28T00:19:38.885Z,3.05
2023-04-28T00:22:41.198Z,2.91
2023-04-28T00:25:43.393Z,2.89
2023-04-28T00:28:45.686Z,3.05
2023-04-28T00:31:47.952Z,3.04
2023-04-28T00:34:50.256Z,2.94
2023-04-28T00:37:52.474Z,2.90
2023-04-28T00:40:54.698Z,2.74
2023-04-28T00:43:57.024Z,2.67
2023-04-28T00:46:59.736Z,2.66
2023-04-28T00:50:02.419Z,2.66
2023-04-28T00:53:04.727Z,2.60
2023-04-28T00:56:07.386Z,2.53
2023-04-28T00:59:09.629Z,2.55
2023-04-28T01:02:17.629Z,2.59
2023-04-28T01:05:20.274Z,2.45
2023-04-28T01:08:28.730Z,2.33
2023-04-28T01:11:31.002Z,2.38
2023-04-28T01:14:34.123Z,2.55
2023-04-28T01:17:36.347Z,2.61
2023-04-28T01:20:38.631Z,2.61
2023-04-28T01:23:40.908Z,2.62
2023-04-28T01:26:43.197Z,2.70
2023-04-28T01:29:45.389Z,2.59
2023-04-28T01:32:47.646Z,2.65
2023-04-28T01:35:49.908Z,2.48
2023-04-28T01:38:52.106Z,2.44
2023-04-28T01:41:54.340Z,2.35
2023-04-28T01:44:56.587Z,2.28
2023-04-28T01:47:58.825Z,2.37
2023-04-28T01:51:01.013Z,2.39
2023-04-28T01:54:03.264Z,2.32
2023-04-28T01:57:05.430Z,2.48
2023-04-28T02:00:08.284Z,2.36
2023-04-28T02:03:10.576Z,2.35
2023-04-28T02:06:12.882Z,2.38
2023-04-28T02:09:15.088Z,2.17
2023-04-28T02:12:17.665Z,2.28
2023-04-28T02:15:19.945Z,2.37
2023-04-28T02:18:22.153Z,2.37
2023-04-28T02:21:24.398Z,2.47
2023-04-28T02:24:26.802Z,2.33
2023-04-28T02:27:29.000Z,2.30
2023-04-28T02:30:31.525Z,2.23
2023-04-28T02:33:33.809Z,2.28
2023-04-28T02:36:36.064Z,2.12
2023-04-28T02:39:38.325Z,1.97
2023-04-28T02:42:40.680Z,1.97
2023-04-28T02:45:42.814Z,1.94
2023-04-28T02:48:45.009Z,1.92
2023-04-28T02:51:47.226Z,1.92
2023-04-28T02:54:54.264Z,1.89
2023-04-28T02:57:56.461Z,1.92
2023-04-28T03:00:58.697Z,1.89
2023-04-28T03:04:01.058Z,1.96
2023-04-28T03:07:03.560Z,1.89
2023-04-28T03:10:06.302Z,1.83
2023-04-28T03:13:08.607Z,1.87
2023-04-28T03:16:11.110Z,1.94
2023-04-28T03:19:13.341Z,1.95
2023-04-28T03:22:15.547Z,1.99
2023-04-28T03:25:17.876Z,1.86
2023-04-28T03:28:20.080Z,1.76
2023-04-28T03:31:22.310Z,1.79
2023-04-28T03:34:24.480Z,1.69
2023-04-28T03:37:27.292Z,1.56
2023-04-28T03:40:29.471Z,1.54
2023-04-28T03:43:33.212Z,1.64
2023-04-28T03:46:35.534Z,1.78
2023-04-28T03:49:37.793Z,1.97
2023-04-28T03:52:40.084Z,2.04
2023-04-28T03:55:42.292Z,2.21
2023-04-28T03:58:44.571Z,2.37
2023-04-28T04:01:46.757Z,2.38
2023-04-28T04:04:49.226Z,2.47
2023-04-28T04:07:51.634Z,2.85
2023-04-28T04:10:55.980Z,3.52
2023-04-28T04:13:58.200Z,4.24
2023-04-28T04:17:00.461Z,4.90
2023-04-28T04:20:02.643Z,5.87
2023-04-28T04:23:04.862Z,6.87
2023-04-28T04:26:07.058Z,7.26
2023-04-28T04:29:09.292Z,7.21
2023-04-28T04:32:11.494Z,7.49
2023-04-28T04:35:13.712Z,8.12
2023-04-28T04:38:16.026Z,7.69
2023-04-28T04:41:20.726Z,7.55
2023-04-28T04:44:22.915Z,8.21
2023-04-28T04:47:25.272Z,8.47
2023-04-28T04:50:27.537Z,8.81
2023-04-28T04:53:29.743Z,9.09
2023-04-28T04:56:32.210Z,9.51
2023-04-28T04:59:34.398Z,9.40
2023-04-28T05:02:36.701Z,9.38
2023-04-28T05:05:39.091Z,9.68
2023-04-28T05:08:41.448Z,10.05
2023-04-28T05:11:43.613Z,10.00
2023-04-28T05:14:45.839Z,9.84
2023-04-28T05:17:48.164Z,9.86
2023-04-28T05:20:50.978Z,10.11
2023-04-28T05:23:53.881Z,10.34
2023-04-28T05:26:58.733Z,9.81
2023-04-28T05:30:01.125Z,9.54
2023-04-28T05:33:03.427Z,9.75
2023-04-28T05:36:06.116Z,9.93
2023-04-28T05:39:08.329Z,10.44
2023-04-28T05:42:10.605Z,10.58
2023-04-28T05:45:12.888Z,10.80
2023-04-28T05:48:15.160Z,11.07
2023-04-28T05:51:17.396Z,11.21
2023-04-28T05:54:19.726Z,11.01
2023-04-28T05:57:22.511Z,10.86
2023-04-28T06:00:24.848Z,10.88
2023-04-28T06:03:27.177Z,10.78
2023-04-28T06:06:29.599Z,11.12
2023-04-28T06:09:31.982Z,11.09
2023-04-28T06:12:34.269Z,10.59
2023-04-28T06:15:36.669Z,10.44
2023-04-28T06:18:38.969Z,10.54
2023-04-28T06:21:41.384Z,10.83
2023-04-28T06:24:44.096Z,10.87
2023-04-28T06:27:46.741Z,10.75
2023-04-28T06:30:48.997Z,10.77
2023-04-28T06:33:51.326Z,11.02
2023-04-28T06:36:53.567Z,11.41
2023-04-28T06:39:55.983Z,11.51
2023-04-28T06:42:58.277Z,11.49
2023-04-28T06:46:01.084Z,11.44
2023-04-28T06:49:03.282Z,11.71
2023-04-28T06:52:05.640Z,11.93
2023-04-28T06:55:11.904Z,12.14
2023-04-28T06:58:14.126Z,12.02
2023-04-28T07:01:17.189Z,12.06
2023-04-28T07:04:19.897Z,12.79
2023-04-28T07:07:22.501Z,12.70
2023-04-28T07:10:24.873Z,13.38
2023-04-28T07:13:27.133Z,13.71
2023-04-28T07:16:29.407Z,13.40
2023-04-28T07:19:31.722Z,13.04
2023-04-28T07:22:33.893Z,12.85
2023-04-28T07:25:36.442Z,13.46
2023-04-28T07:28:38.681Z,13.88
2023-04-28T07:31:40.925Z,14.20
2023-04-28T07:34:43.190Z,14.45
2023-04-28T07:37:45.430Z,14.81
2023-04-28T07:40:47.780Z,14.86
2023-04-28T07:43:50.143Z,14.98
2023-04-28T07:46:53.557Z,14.81
2023-04-28T07:49:55.782Z,15.07
2023-04-28T07:52:58.966Z,15.12
2023-04-28T07:56:01.438Z,15.01
2023-04-28T07:59:03.636Z,14.96
2023-04-28T08:02:06.782Z,14.89
2023-04-28T08:05:10.102Z,15.01
2023-04-28T08:08:12.945Z,15.20
2023-04-28T08:11:15.432Z,15.37
2023-04-28T08:14:18.059Z,15.43
2023-04-28T08:17:20.544Z,15.71
2023-04-28T08:20:24.596Z,15.85
2023-04-28T08:23:31.949Z,15.68
2023-04-28T08:26:34.265Z,15.73
2023-04-28T08:29:36.596Z,15.89
2023-04-28T08:32:39.074Z,16.13
2023-04-28T08:35:41.323Z,16.05
2023-04-28T08:38:44.353Z,15.84
2023-04-28T08:41:46.585Z,15.95
2023-04-28T08:44:49.881Z,15.95
2023-04-28T08:47:52.484Z,16.22
2023-04-28T08:50:54.975Z,16.44
2023-04-28T08:54:18.845Z,16.52
2023-04-28T08:57:21.878Z,16.43
2023-04-28T09:00:24.887Z,16.36
2023-04-28T09:03:27.549Z,16.32
2023-04-28T09:06:37.297Z,16.28
2023-04-28T09:09:41.027Z,16.41
2023-04-28T09:12:43.515Z,16.46
2023-04-28T09:15:45.957Z,16.20
2023-04-28T09:18:58.309Z,16.57
2023-04-28T09:22:03.707Z,16.72
2023-04-28T09:25:13.389Z,16.23
2023-04-28T09:28:22.148Z,16.30
2023-04-28T09:31:26.025Z,16.71
2023-04-28T09:34:42.952Z,16.53
2023-04-28T09:37:45.292Z,16.91
2023-04-28T09:40:54.526Z,16.81
2023-04-28T09:44:10.446Z,16.63
2023-04-28T09:47:22.341Z,17.17
2023-04-28T09:50:24.632Z,17.04
2023-04-28T09:53:28.036Z,17.23
2023-04-28T09:56:31.561Z,17.01
2023-04-28T09:59:34.737Z,16.94
2023-04-28T10:05:44.366Z,16.88
2023-04-28T10:08:48.364Z,17.12
2023-04-28T10:11:51.367Z,17.33
2023-04-28T10:14:57.287Z,17.19
2023-04-28T10:18:00.004Z,17.40
2023-04-28T10:21:04.331Z,17.70
2023-04-28T10:24:13.962Z,17.59
2023-04-28T10:27:16.908Z,17.52
2023-04-28T10:30:27.355Z,17.92
2023-04-28T10:33:31.369Z,17.92
2023-04-28T10:36:50.949Z,17.47
2023-04-28T10:40:31.503Z,17.79
2023-04-28T10:43:37.728Z,17.72
2023-04-28T10:47:05.175Z,17.87
2023-04-28T10:50:11.498Z,18.02
2023-04-28T10:53:13.708Z,18.05
2023-04-28T10:56:24.911Z,18.33
2023-04-28T10:59:30.270Z,17.78
2023-04-28T11:02:43.973Z,17.98
2023-04-28T11:06:19.301Z,17.54
2023-04-28T11:09:21.680Z,17.66
2023-04-28T11:12:23.903Z,17.37
2023-04-28T11:15:26.589Z,17.08
2023-04-28T11:18:29.081Z,17.52
2023-04-28T11:21:32.051Z,17.62
2023-04-28T11:24:34.232Z,17.39
2023-04-28T11:27:37.455Z,17.20
2023-04-28T11:30:39.804Z,17.14
2023-04-28T11:33:42.052Z,17.27
2023-04-28T11:36:44.662Z,17.32
2023-04-28T11:39:47.136Z,17.39
2023-04-28T11:42:49.504Z,17.15
2023-04-28T11:45:51.750Z,17.25
2023-04-28T11:49:02.597Z,17.14
2023-04-28T11:52:06.480Z,17.26
2023-04-28T11:55:10.085Z,17.12
2023-04-28T11:58:23.787Z,16.89
2023-04-28T12:01:26.088Z,16.84
2023-04-28T12:04:33.056Z,16.77
2023-04-28T12:07:45.931Z,16.95
2023-04-28T12:11:11.025Z,17.26
2023-04-28T12:14:13.226Z,17.72
2023-04-28T12:17:29.123Z,17.98
2023-04-28T12:20:38.707Z,18.03
2023-04-28T12:23:43.244Z,17.87
2023-04-28T12:26:45.779Z,17.70
2023-04-28T12:29:48.678Z,17.71
2023-04-28T12:32:51.717Z,17.67
2023-04-28T12:35:55.389Z,17.87
2023-04-28T12:38:57.844Z,18.00
2023-04-28T12:42:02.433Z,17.71
2023-04-28T12:45:06.588Z,17.35
2023-04-28T12:48:08.912Z,17.15
2023-04-28T12:51:11.274Z,17.11
2023-04-28T12:54:14.620Z,17.16
2023-04-28T12:57:18.459Z,17.49
2023-04-28T13:00:23.414Z,17.76
2023-04-28T13:03:26.116Z,17.89
2023-04-28T13:06:28.897Z,17.76
2023-04-28T13:09:31.171Z,17.60
2023-04-28T13:12:34.121Z,17.34
2023-04-28T13:15:38.781Z,17.21
2023-04-28T13:18:41.289Z,16.97
2023-04-28T13:21:44.203Z,16.97
2023-04-28T13:24:46.754Z,16.82
2023-04-28T13:27:49.273Z,16.96
2023-04-28T13:30:51.553Z,17.01
2023-04-28T13:33:53.763Z,17.02
2023-04-28T13:36:56.498Z,16.94
2023-04-28T13:39:59.504Z,16.83
2023-04-28T13:43:01.752Z,16.72
2023-04-28T13:46:08.360Z,17.01
2023-04-28T13:49:10.753Z,17.12
2023-04-28T13:52:14.045Z,16.95
2023-04-28T13:55:16.243Z,17.17
2023-04-28T13:58:18.507Z,17.22
2023-04-28T14:03:19.465Z,17.82
2023-04-28T14:06:22.352Z,17.82
2023-04-28T14:09:24.689Z,17.18
2023-04-28T14:12:26.911Z,17.24
2023-04-28T14:15:29.172Z,17.09
2023-04-28T14:18:33.760Z,16.98
2023-04-28T14:21:37.003Z,16.82
2023-04-28T14:24:39.192Z,16.90
2023-04-28T14:27:41.487Z,16.84
2023-04-28T14:30:43.918Z,16.73
2023-04-28T14:33:46.438Z,16.56
2023-04-28T14:36:48.727Z,16.69
2023-04-28T14:39:50.902Z,16.51
2023-04-28T14:42:53.114Z,16.32
2023-04-28T14:45:55.425Z,16.28
2023-04-28T14:48:58.428Z,16.17
2023-04-28T14:52:00.895Z,16.01
2023-04-28T14:55:05.179Z,16.04
2023-04-28T14:58:07.504Z,15.82
2023-04-28T15:01:09.707Z,15.79
2023-04-28T15:04:12.477Z,15.83
2023-04-28T15:07:15.047Z,15.89
2023-04-28T15:10:17.910Z,15.92
2023-04-28T15:13:20.138Z,15.89
2023-04-28T15:16:22.530Z,15.86
2023-04-28T15:19:25.052Z,15.94
2023-04-28T15:22:27.293Z,15.95
2023-04-28T15:25:29.579Z,15.94
2023-04-28T15:28:31.778Z,16.05
2023-04-28T15:31:34.439Z,16.03
2023-04-28T15:34:36.750Z,16.06
2023-04-28T15:37:43.455Z,15.97
2023-04-28T15:40:46.090Z,16.02
2023-04-28T15:43:50.400Z,16.21
2023-04-28T15:46:52.952Z,16.16
2023-04-28T15:49:55.301Z,16.18
2023-04-28T15:52:57.605Z,16.07
2023-04-28T15:55:59.794Z,16.13
2023-04-28T15:59:02.050Z,15.96
2023-04-28T16:02:04.325Z,16.01
2023-04-28T16:05:07.306Z,15.88
2023-04-28T16:08:09.792Z,15.93
2023-04-28T16:11:17.884Z,15.92
2023-04-28T16:14:20.144Z,15.95
2023-04-28T16:17:22.953Z,15.88
2023-04-28T16:20:25.182Z,15.77
2023-04-28T16:23:27.388Z,15.62
2023-04-28T16:26:29.667Z,15.55
2023-04-28T16:29:31.940Z,15.60
2023-04-28T16:32:36.498Z,15.39
2023-04-28T16:35:38.812Z,15.46
2023-04-28T16:38:41.145Z,15.34
2023-04-28T16:41:43.391Z,15.32
2023-04-28T16:44:45.552Z,15.22
2023-04-28T16:47:48.009Z,15.27
2023-04-28T16:50:50.380Z,15.26
2023-04-28T16:53:52.555Z,15.26
2023-04-28T16:56:55.551Z,15.15
2023-04-28T16:59:57.798Z,15.11
2023-04-28T17:03:00.139Z,15.10
2023-04-28T17:06:03.438Z,15.30
2023-04-28T17:09:05.787Z,15.13
2023-04-28T17:12:08.172Z,15.12
2023-04-28T17:15:15.352Z,15.06
2023-04-28T17:18:17.654Z,14.97
2023-04-28T17:21:19.848Z,15.04
2023-04-28T17:24:22.238Z,14.94
2023-04-28T17:27:24.601Z,14.88
2023-04-28T17:30:26.832Z,14.72
2023-04-28T17:33:29.157Z,14.66
2023-04-28T17:36:32.256Z,14.84
2023-04-28T17:39:34.410Z,14.72
2023-04-28T17:42:36.771Z,14.86
2023-04-28T17:45:39.002Z,14.76
2023-04-28T17:48:42.396Z,14.83
2023-04-28T17:51:44.595Z,14.76
2023-04-28T17:54:47.067Z,14.71
2023-04-28T17:57:51.652Z,14.73
2023-04-28T18:01:03.953Z,14.65
2023-04-28T18:04:06.210Z,14.63
2023-04-28T18:07:08.424Z,14.56
2023-04-28T18:10:11.136Z,14.53
2023-04-28T18:13:13.352Z,14.45
2023-04-28T18:16:16.510Z,14.52
2023-04-28T18:19:18.751Z,14.42
2023-04-28T18:22:21.342Z,14.34
2023-04-28T18:25:23.746Z,14.28
2023-04-28T18:28:25.928Z,14.21
2023-04-28T18:31:28.500Z,14.22
2023-04-28T18:34:30.868Z,14.18
2023-04-28T18:37:33.174Z,14.13
2023-04-28T18:40:39.589Z,14.17
2023-04-28T18:43:42.575Z,14.09
2023-04-28T18:46:45.056Z,14.08
2023-04-28T18:49:47.611Z,13.98
2023-04-28T18:52:50.148Z,13.84
2023-04-28T18:55:58.256Z,13.78
2023-04-28T18:59:01.294Z,13.73
2023-04-28T19:02:04.297Z,13.62
2023-04-28T19:05:07.518Z,13.52
2023-04-28T19:08:11.898Z,13.39
2023-04-28T19:11:14.656Z,13.27
2023-04-28T19:14:17.907Z,13.24
2023-04-28T19:17:20.377Z,13.19
2023-04-28T19:20:23.132Z,13.14
2023-04-28T19:23:25.577Z,13.11
2023-04-28T19:26:28.106Z,13.06
2023-04-28T19:29:31.685Z,13.15
2023-04-28T19:32:37.887Z,13.19
2023-04-28T19:35:40.495Z,13.19
2023-04-28T19:38:42.980Z,13.19
2023-04-28T19:41:46.986Z,13.11
2023-04-28T19:44:57.008Z,13.00
2023-04-28T19:47:59.445Z,12.90
2023-04-28T19:51:02.152Z,12.97
2023-04-28T19:54:04.767Z,12.86
2023-04-28T19:57:07.168Z,12.83
2023-04-28T20:00:10.469Z,12.81
2023-04-28T20:03:14.926Z,12.80
2023-04-28T20:06:17.716Z,12.86
2023-04-28T20:09:20.261Z,12.83
2023-04-28T20:12:23.122Z,12.90
2023-04-28T20:15:25.427Z,12.93
2023-04-28T20:18:27.831Z,12.92
2023-04-28T20:21:31.564Z,12.91
2023-04-28T20:24:34.825Z,12.88
2023-04-28T20:27:37.303Z,12.84
2023-04-28T20:30:41.956Z,12.86
2023-04-28T20:33:44.139Z,12.93
2023-04-28T20:36:46.338Z,12.86
2023-04-28T20:39:50.592Z,12.86
2023-04-28T20:42:52.956Z,12.94
2023-04-28T20:45:55.232Z,12.85
2023-04-28T20:48:57.421Z,12.83
2023-04-28T20:52:04.936Z,12.88
2023-04-28T20:55:08.414Z,12.92
2023-04-28T20:58:10.555Z,12.86
2023-04-28T21:01:13.661Z,12.85
2023-04-28T21:04:16.217Z,12.90
2023-04-28T21:07:18.755Z,12.89
2023-04-28T21:10:20.979Z,12.96
2023-04-28T21:13:23.247Z,12.99
2023-04-28T21:16:25.524Z,12.86
2023-04-28T21:19:27.724Z,12.92
2023-04-28T21:22:30.064Z,12.93
2023-04-28T21:25:32.242Z,12.83
2023-04-28T21:28:35.411Z,12.83
2023-04-28T21:31:37.918Z,12.77
2023-04-28T21:34:40.179Z,12.81
2023-04-28T21:37:42.682Z,12.66
2023-04-28T21:40:44.863Z,12.65
2023-04-28T21:43:47.105Z,12.62
2023-04-28T21:46:49.371Z,12.57
2023-04-28T21:49:51.905Z,12.48
2023-04-28T21:52:54.414Z,12.55
2023-04-28T21:55:56.650Z,12.47
2023-04-28T21:59:00.100Z,12.48
2023-04-28T22:02:02.694Z,12.51
2023-04-28T22:05:05.355Z,12.54
2023-04-28T22:08:07.765Z,12.51
2023-04-28T22:11:10.055Z,12.44
2023-04-28T22:14:21.600Z,12.46
2023-04-28T22:17:35.267Z,12.39
2023-04-28T22:20:37.683Z,12.23
2023-04-28T22:23:40.120Z,12.14
2023-04-28T22:26:42.401Z,12.13
2023-04-28T22:29:44.596Z,12.06
2023-04-28T22:32:47.452Z,11.98
2023-04-28T22:35:50.314Z,12.00
2023-04-28T22:38:52.931Z,11.77
2023-04-28T22:41:55.826Z,11.64
2023-04-28T22:44:58.023Z,11.56
2023-04-28T22:48:00.709Z,11.48
2023-04-28T22:51:02.922Z,11.38
2023-04-28T22:54:05.179Z,11.31
2023-04-28T22:57:07.703Z,11.29
2023-04-28T23:00:10.554Z,11.30
2023-04-28T23:03:12.904Z,11.30
2023-04-28T23:06:15.197Z,11.35
2023-04-28T23:09:17.957Z,11.34
2023-04-28T23:12:20.233Z,11.42
2023-04-28T23:15:22.532Z,11.51
2023-04-28T23:18:24.730Z,11.55
2023-04-28T23:21:28.351Z,11.55
2023-04-28T23:24:30.506Z,11.53
2023-04-28T23:27:32.744Z,11.56
2023-04-28T23:30:35.119Z,11.51
2023-04-28T23:33:38.011Z,11.51
2023-04-28T23:36:40.340Z,11.40
2023-04-28T23:39:42.643Z,11.42
2023-04-28T23:42:45.025Z,11.23
2023-04-28T23:45:47.323Z,11.15
2023-04-28T23:48:49.536Z,11.10
2023-04-28T23:51:51.763Z,10.98
2023-04-28T23:54:53.965Z,11.00
2023-04-28T23:57:56.143Z,11.04
